createdAt,value
2018-04-07T00:00:29.645Z,0
2018-04-07T00:01:30.312Z,0
2018-04-07T00:02:30.978Z,0
2018-04-07T00:03:31.646Z,0
2018-04-07T00:04:32.322Z,0
2018-04-07T00:05:32.991Z,0
2018-04-07T00:06:33.662Z,0
2018-04-07T00:07:34.330Z,0
2018-04-07T00:08:35.000Z,0
2018-04-07T00:09:35.668Z,0
2018-04-07T00:10:36.340Z,0
2018-04-07T00:11:37.006Z,0
2018-04-07T00:12:37.673Z,0
2018-04-07T00:13:38.340Z,0
2018-04-07T00:14:39.018Z,0
2018-04-07T00:15:39.685Z,0
2018-04-07T00:16:40.356Z,0
2018-04-07T00:17:41.024Z,0
2018-04-07T00:18:41.691Z,0
2018-04-07T00:19:42.360Z,0
2018-04-07T00:20:43.028Z,0
2018-04-07T00:21:43.693Z,0
2018-04-07T00:22:44.362Z,0
2018-04-07T00:23:45.034Z,0
2018-04-07T00:24:45.701Z,0
2018-04-07T00:25:46.369Z,0
2018-04-07T00:26:47.037Z,0
2018-04-07T00:27:47.705Z,0
2018-04-07T00:28:48.374Z,0
2018-04-07T00:29:49.040Z,0
2018-04-07T00:30:49.706Z,0
2018-04-07T00:31:50.375Z,0
2018-04-07T00:32:51.042Z,0
2018-04-07T00:33:51.717Z,0
2018-04-07T00:34:52.384Z,0
2018-04-07T00:35:53.051Z,0
2018-04-07T00:36:53.721Z,0
2018-04-07T00:37:54.386Z,0
2018-04-07T00:38:55.052Z,0
2018-04-07T00:39:55.720Z,0
2018-04-07T00:40:56.395Z,0
2018-04-07T00:41:57.069Z,0
2018-04-07T00:42:57.737Z,0
2018-04-07T00:43:58.414Z,0
2018-04-07T00:44:59.079Z,0
2018-04-07T00:45:59.746Z,0
2018-04-07T00:47:00.410Z,0
2018-04-07T00:48:01.081Z,0
2018-04-07T00:49:01.746Z,0
2018-04-07T00:50:02.416Z,0
2018-04-07T00:51:03.083Z,0
2018-04-07T00:52:03.751Z,0
2018-04-07T00:53:04.422Z,0
2018-04-07T00:54:05.105Z,0
2018-04-07T00:55:05.770Z,0
2018-04-07T00:56:06.437Z,0
2018-04-07T00:57:07.102Z,0
2018-04-07T00:58:07.771Z,0
2018-04-07T00:59:08.438Z,0
2018-04-07T01:00:09.104Z,0
2018-04-07T01:01:09.775Z,0
2018-04-07T01:02:10.441Z,0
2018-04-07T01:03:11.110Z,0
2018-04-07T01:04:11.785Z,0
2018-04-07T01:05:12.447Z,0
2018-04-07T01:06:13.117Z,0
2018-04-07T01:07:13.783Z,0
2018-04-07T01:08:14.450Z,0
2018-04-07T01:09:15.121Z,0
2018-04-07T01:10:15.789Z,0
2018-04-07T01:11:16.460Z,0
2018-04-07T01:12:17.129Z,0
2018-04-07T01:13:17.796Z,0
2018-04-07T01:14:18.460Z,0
2018-04-07T01:15:19.129Z,0
2018-04-07T01:16:19.795Z,0
2018-04-07T01:17:20.465Z,0
2018-04-07T01:18:21.130Z,0
2018-04-07T01:19:21.803Z,0
2018-04-07T01:20:22.469Z,0
2018-04-07T01:21:23.135Z,0
2018-04-07T01:22:23.800Z,0
2018-04-07T01:23:24.477Z,0
2018-04-07T01:24:25.146Z,0
2018-04-07T01:25:25.811Z,0
2018-04-07T01:26:26.486Z,0
2018-04-07T01:27:27.162Z,0
2018-04-07T01:28:27.831Z,0
2018-04-07T01:29:28.500Z,0
2018-04-07T01:30:29.177Z,0
2018-04-07T01:31:29.853Z,0
2018-04-07T01:32:30.520Z,0
2018-04-07T01:33:31.186Z,0
2018-04-07T01:34:31.860Z,0
2018-04-07T01:35:32.524Z,0
2018-04-07T01:36:33.194Z,0
2018-04-07T01:37:33.861Z,0
2018-04-07T01:38:34.530Z,0
2018-04-07T01:39:35.199Z,0
2018-04-07T01:40:35.867Z,0
2018-04-07T01:41:36.532Z,0
2018-04-07T01:42:37.198Z,0
2018-04-07T01:43:37.872Z,0
2018-04-07T01:44:38.534Z,0
2018-04-07T01:45:39.202Z,0
2018-04-07T01:46:39.870Z,0
2018-04-07T01:47:40.536Z,0
2018-04-07T01:48:41.201Z,0
2018-04-07T01:49:41.867Z,0
2018-04-07T01:50:42.535Z,0
2018-04-07T01:51:43.204Z,0
2018-04-07T01:52:43.874Z,0
2018-04-07T01:53:44.538Z,0
2018-04-07T01:54:45.208Z,0
2018-04-07T01:55:45.875Z,0
2018-04-07T01:56:46.543Z,0
2018-04-07T01:57:47.213Z,0
2018-04-07T01:58:47.877Z,0
2018-04-07T01:59:48.547Z,0
2018-04-07T02:00:49.219Z,0
2018-04-07T02:01:49.887Z,0
2018-04-07T02:02:50.555Z,0
2018-04-07T02:03:51.231Z,0
2018-04-07T02:04:51.900Z,0
2018-04-07T02:05:52.565Z,0
2018-04-07T02:06:53.232Z,0
2018-04-07T02:07:53.904Z,0
2018-04-07T02:08:54.572Z,0
2018-04-07T02:09:55.243Z,0
2018-04-07T02:10:55.917Z,0
2018-04-07T02:11:56.599Z,0
2018-04-07T02:12:57.268Z,0
2018-04-07T02:13:57.934Z,0
2018-04-07T02:14:58.600Z,0
2018-04-07T02:15:59.268Z,0
2018-04-07T02:16:59.935Z,0
2018-04-07T02:18:00.602Z,0
2018-04-07T02:19:01.267Z,0
2018-04-07T02:20:01.937Z,0
2018-04-07T02:21:02.602Z,0
2018-04-07T02:22:03.270Z,0
2018-04-07T02:23:03.942Z,0
2018-04-07T02:24:04.605Z,0
2018-04-07T02:25:05.276Z,0
2018-04-07T02:26:05.942Z,0
2018-04-07T02:27:06.610Z,0
2018-04-07T02:28:07.276Z,0
2018-04-07T02:29:07.944Z,0
2018-04-07T02:30:08.612Z,0
2018-04-07T02:31:09.282Z,0
2018-04-07T02:32:09.950Z,0
2018-04-07T02:33:10.617Z,0
2018-04-07T02:34:11.287Z,0
2018-04-07T02:35:11.953Z,0
2018-04-07T02:36:12.626Z,0
2018-04-07T02:37:13.291Z,0
2018-04-07T02:38:13.962Z,0
2018-04-07T02:39:14.625Z,0
2018-04-07T02:40:15.290Z,0
2018-04-07T02:41:15.957Z,0
2018-04-07T02:42:16.626Z,0
2018-04-07T02:43:17.292Z,0
2018-04-07T02:44:17.966Z,0
2018-04-07T02:45:18.626Z,0
2018-04-07T02:46:19.303Z,0
2018-04-07T02:47:19.961Z,0
2018-04-07T02:48:20.634Z,0
2018-04-07T02:49:21.302Z,0
2018-04-07T02:50:22.001Z,0
2018-04-07T02:51:22.644Z,0
2018-04-07T02:52:23.306Z,0
2018-04-07T02:53:23.976Z,0
2018-04-07T02:54:24.642Z,0
2018-04-07T02:55:25.306Z,0
2018-04-07T02:56:25.976Z,0
2018-04-07T02:57:26.643Z,0
2018-04-07T02:58:27.315Z,0
2018-04-07T02:59:27.978Z,0
2018-04-07T03:00:28.645Z,0
2018-04-07T03:01:29.308Z,0
2018-04-07T03:02:29.972Z,0
2018-04-07T03:03:30.645Z,0
2018-04-07T03:04:31.310Z,0
2018-04-07T03:05:31.974Z,0
2018-04-07T03:06:32.643Z,0
2018-04-07T03:07:33.308Z,0
2018-04-07T03:08:33.972Z,0
2018-04-07T03:09:34.648Z,0
2018-04-07T03:10:35.312Z,0
2018-04-07T03:11:35.983Z,0
2018-04-07T03:12:36.651Z,0
2018-04-07T03:13:37.316Z,0
2018-04-07T03:14:37.984Z,0
2018-04-07T03:15:38.652Z,0
2018-04-07T03:16:39.317Z,0
2018-04-07T03:17:39.981Z,0
2018-04-07T03:18:40.648Z,0
2018-04-07T03:19:41.313Z,0
2018-04-07T03:20:41.984Z,0
2018-04-07T03:21:42.646Z,0
2018-04-07T03:22:43.314Z,0
2018-04-07T03:23:43.981Z,0
2018-04-07T03:24:44.647Z,0
2018-04-07T03:25:45.318Z,0
2018-04-07T03:26:45.985Z,0
2018-04-07T03:27:46.657Z,0
2018-04-07T03:28:47.328Z,0
2018-04-07T03:29:47.994Z,0
2018-04-07T03:30:48.664Z,0
2018-04-07T03:31:49.328Z,0
2018-04-07T03:32:49.995Z,0
2018-04-07T03:33:50.670Z,0
2018-04-07T03:34:51.338Z,0
2018-04-07T03:35:52.009Z,0
2018-04-07T03:36:52.678Z,0
2018-04-07T03:37:53.343Z,0
2018-04-07T03:38:54.010Z,0
2018-04-07T03:39:54.676Z,0
2018-04-07T03:40:55.343Z,0
2018-04-07T03:41:56.010Z,0
2018-04-07T03:42:56.677Z,0
2018-04-07T03:43:57.348Z,0
2018-04-07T03:44:58.015Z,0
2018-04-07T03:45:58.685Z,0
2018-04-07T03:46:59.351Z,0
2018-04-07T03:48:00.030Z,0
2018-04-07T03:49:00.694Z,0
2018-04-07T03:50:01.367Z,0
2018-04-07T03:51:02.034Z,0
2018-04-07T03:52:02.700Z,0
2018-04-07T03:53:03.368Z,0
2018-04-07T03:54:04.044Z,0
2018-04-07T03:55:04.716Z,0
2018-04-07T03:56:05.385Z,0
2018-04-07T03:57:06.054Z,0
2018-04-07T03:58:06.724Z,0
2018-04-07T03:59:07.395Z,0
2018-04-07T04:00:08.061Z,0
2018-04-07T04:01:08.739Z,0
2018-04-07T04:02:09.405Z,0
2018-04-07T04:03:10.081Z,0
2018-04-07T04:04:10.765Z,0
2018-04-07T04:05:11.436Z,0
2018-04-07T04:06:12.105Z,0
2018-04-07T04:07:12.773Z,0
2018-04-07T04:08:13.440Z,0
2018-04-07T04:09:14.105Z,0
2018-04-07T04:10:14.769Z,0
2018-04-07T04:11:15.436Z,0
2018-04-07T04:12:16.112Z,0
2018-04-07T04:13:16.780Z,0
2018-04-07T04:14:17.446Z,0
2018-04-07T04:15:18.114Z,0
2018-04-07T04:16:18.783Z,0
2018-04-07T04:17:19.449Z,4
2018-04-07T04:18:20.123Z,4
2018-04-07T04:19:20.787Z,0
2018-04-07T04:20:21.454Z,4
2018-04-07T04:21:22.120Z,4
2018-04-07T04:22:22.788Z,4
2018-04-07T04:23:23.479Z,8
2018-04-07T04:24:24.123Z,8
2018-04-07T04:25:24.790Z,8
2018-04-07T04:26:25.457Z,8
2018-04-07T04:27:26.124Z,12
2018-04-07T04:28:26.792Z,12
2018-04-07T04:29:27.461Z,16
2018-04-07T04:30:28.126Z,16
2018-04-07T04:31:28.799Z,20
2018-04-07T04:32:29.467Z,28
2018-04-07T04:33:30.134Z,28
2018-04-07T04:34:30.799Z,32
2018-04-07T04:35:31.474Z,40
2018-04-07T04:36:32.145Z,44
2018-04-07T04:37:32.811Z,52
2018-04-07T04:38:33.481Z,60
2018-04-07T04:39:34.152Z,68
2018-04-07T04:40:34.837Z,76
2018-04-07T04:41:35.507Z,88
2018-04-07T04:42:36.179Z,100
2018-04-07T04:43:36.878Z,112
2018-04-07T04:44:37.513Z,120
2018-04-07T04:45:38.182Z,136
2018-04-07T04:46:38.860Z,152
2018-04-07T04:47:39.539Z,164
2018-04-07T04:48:40.205Z,180
2018-04-07T04:49:40.875Z,196
2018-04-07T04:50:41.591Z,212
2018-04-07T04:51:42.228Z,228
2018-04-07T04:52:42.900Z,244
2018-04-07T04:53:43.571Z,268
2018-04-07T04:54:44.242Z,284
2018-04-07T04:55:44.921Z,304
2018-04-07T04:56:45.592Z,320
2018-04-07T04:57:46.262Z,340
2018-04-07T04:58:46.931Z,360
2018-04-07T04:59:47.602Z,380
2018-04-07T05:00:48.276Z,400
2018-04-07T05:01:48.948Z,420
2018-04-07T05:02:49.617Z,436
2018-04-07T05:03:50.289Z,460
2018-04-07T05:04:50.956Z,480
2018-04-07T05:05:51.627Z,500
2018-04-07T05:06:52.303Z,516
2018-04-07T05:07:52.969Z,540
2018-04-07T05:08:53.639Z,556
2018-04-07T05:09:54.314Z,576
2018-04-07T05:10:54.985Z,596
2018-04-07T05:11:55.657Z,612
2018-04-07T05:12:56.326Z,632
2018-04-07T05:13:57.000Z,648
2018-04-07T05:14:57.672Z,668
2018-04-07T05:15:58.347Z,688
2018-04-07T05:16:59.014Z,708
2018-04-07T05:17:59.688Z,724
2018-04-07T05:19:00.360Z,744
2018-04-07T05:20:01.030Z,760
2018-04-07T05:21:01.705Z,776
2018-04-07T05:22:02.373Z,796
2018-04-07T05:23:03.045Z,816
2018-04-07T05:24:03.723Z,832
2018-04-07T05:25:04.405Z,852
2018-04-07T05:26:05.074Z,876
2018-04-07T05:27:05.743Z,892
2018-04-07T05:28:06.416Z,916
2018-04-07T05:29:07.095Z,928
2018-04-07T05:30:07.760Z,952
2018-04-07T05:31:08.434Z,964
2018-04-07T05:32:09.102Z,984
2018-04-07T05:33:09.771Z,1004
2018-04-07T05:34:10.443Z,1020
2018-04-07T05:35:11.110Z,1032
2018-04-07T05:36:11.779Z,1044
2018-04-07T05:37:12.453Z,1052
2018-04-07T05:38:13.120Z,1068
2018-04-07T05:39:13.797Z,1080
2018-04-07T05:40:14.469Z,1096
2018-04-07T05:41:15.144Z,1108
2018-04-07T05:42:15.814Z,1124
2018-04-07T05:43:16.486Z,1136
2018-04-07T05:44:17.158Z,1152
2018-04-07T05:45:17.828Z,1164
2018-04-07T05:46:18.502Z,1184
2018-04-07T05:47:19.176Z,1192
2018-04-07T05:48:19.847Z,1204
2018-04-07T05:49:20.520Z,1212
2018-04-07T05:50:21.199Z,1232
2018-04-07T05:51:21.861Z,1252
2018-04-07T05:52:22.533Z,1264
2018-04-07T05:53:23.204Z,1276
2018-04-07T05:54:23.876Z,1248
2018-04-07T05:55:24.548Z,1260
2018-04-07T05:56:25.220Z,1304
2018-04-07T05:57:25.892Z,1312
2018-04-07T05:58:26.565Z,1348
2018-04-07T05:59:27.236Z,1352
2018-04-07T06:00:27.912Z,1376
2018-04-07T06:01:28.585Z,1388
2018-04-07T06:02:29.262Z,1396
2018-04-07T06:03:29.934Z,1408
2018-04-07T06:04:30.615Z,1420
2018-04-07T06:05:31.293Z,1432
2018-04-07T06:06:31.964Z,1444
2018-04-07T06:07:32.633Z,1452
2018-04-07T06:08:33.306Z,1464
2018-04-07T06:09:33.975Z,1476
2018-04-07T06:10:34.646Z,1484
2018-04-07T06:11:35.318Z,1492
2018-04-07T06:12:35.990Z,1504
2018-04-07T06:13:36.662Z,1512
2018-04-07T06:14:37.340Z,1524
2018-04-07T06:15:38.015Z,1532
2018-04-07T06:16:38.690Z,1540
2018-04-07T06:17:39.360Z,1548
2018-04-07T06:18:40.032Z,1560
2018-04-07T06:19:40.703Z,1568
2018-04-07T06:20:41.376Z,1576
2018-04-07T06:21:42.054Z,1584
2018-04-07T06:22:42.725Z,1596
2018-04-07T06:23:43.397Z,1604
2018-04-07T06:24:44.067Z,1612
2018-04-07T06:25:44.739Z,1620
2018-04-07T06:26:45.406Z,1628
2018-04-07T06:27:46.078Z,1636
2018-04-07T06:28:46.753Z,1644
2018-04-07T06:29:47.422Z,1656
2018-04-07T06:30:48.094Z,1660
2018-04-07T06:31:48.772Z,1668
2018-04-07T06:32:49.440Z,1676
2018-04-07T06:33:50.119Z,1684
2018-04-07T06:34:50.839Z,1692
2018-04-07T06:35:51.448Z,1700
2018-04-07T06:36:52.125Z,1708
2018-04-07T06:37:52.793Z,1716
2018-04-07T06:38:53.463Z,1720
2018-04-07T06:39:54.134Z,1728
2018-04-07T06:40:54.806Z,1736
2018-04-07T06:41:55.496Z,1740
2018-04-07T06:42:56.149Z,1744
2018-04-07T06:43:56.828Z,1752
2018-04-07T06:44:57.503Z,1756
2018-04-07T06:45:58.174Z,1764
2018-04-07T06:46:58.856Z,1768
2018-04-07T06:47:59.561Z,1776
2018-04-07T06:49:00.201Z,1784
2018-04-07T06:50:00.884Z,1784
2018-04-07T06:51:01.559Z,1792
2018-04-07T06:52:02.228Z,1800
2018-04-07T06:53:02.910Z,1804
2018-04-07T06:54:03.579Z,1808
2018-04-07T06:55:04.283Z,1812
2018-04-07T06:56:04.921Z,1816
2018-04-07T06:57:05.604Z,1824
2018-04-07T06:58:06.282Z,1828
2018-04-07T06:59:06.950Z,1832
2018-04-07T07:00:07.624Z,1836
2018-04-07T07:01:08.296Z,1844
2018-04-07T07:02:08.972Z,1848
2018-04-07T07:03:09.647Z,1852
2018-04-07T07:04:10.324Z,1856
2018-04-07T07:05:10.995Z,1864
2018-04-07T07:06:11.666Z,1868
2018-04-07T07:07:12.339Z,1872
2018-04-07T07:08:13.019Z,1876
2018-04-07T07:09:13.692Z,1884
2018-04-07T07:10:14.366Z,1884
2018-04-07T07:11:15.036Z,1892
2018-04-07T07:12:15.718Z,1896
2018-04-07T07:13:16.396Z,1896
2018-04-07T07:14:17.077Z,1904
2018-04-07T07:15:17.748Z,1904
2018-04-07T07:16:18.433Z,1904
2018-04-07T07:17:19.107Z,1908
2018-04-07T07:18:19.790Z,1916
2018-04-07T07:19:20.444Z,1920
2018-04-07T07:20:21.070Z,1924
2018-04-07T07:21:21.793Z,1932
2018-04-07T07:22:22.464Z,1936
2018-04-07T07:23:23.137Z,1940
2018-04-07T07:24:23.810Z,1944
2018-04-07T07:25:24.483Z,1948
2018-04-07T07:26:25.154Z,1956
2018-04-07T07:27:25.827Z,1960
2018-04-07T07:28:26.499Z,1960
2018-04-07T07:29:27.170Z,1964
2018-04-07T07:30:27.843Z,1968
2018-04-07T07:31:28.523Z,1972
2018-04-07T07:32:29.242Z,1980
2018-04-07T07:33:29.875Z,1984
2018-04-07T07:34:30.543Z,1976
2018-04-07T07:35:31.216Z,1980
2018-04-07T07:36:31.893Z,1980
2018-04-07T07:37:32.563Z,1996
2018-04-07T07:38:33.235Z,1992
2018-04-07T07:39:33.910Z,2004
2018-04-07T07:40:34.582Z,2008
2018-04-07T07:41:35.261Z,2008
2018-04-07T07:42:35.940Z,2016
2018-04-07T07:43:36.614Z,2024
2018-04-07T07:44:37.286Z,2028
2018-04-07T07:45:37.958Z,2016
2018-04-07T07:46:38.633Z,2024
2018-04-07T07:47:39.303Z,2024
2018-04-07T07:48:39.977Z,2020
2018-04-07T07:49:40.646Z,2024
2018-04-07T07:50:41.327Z,2056
2018-04-07T07:51:42.003Z,2056
2018-04-07T07:52:42.671Z,2060
2018-04-07T07:53:43.344Z,2064
2018-04-07T07:54:44.015Z,2068
2018-04-07T07:55:44.687Z,2072
2018-04-07T07:56:45.364Z,2080
2018-04-07T07:57:46.041Z,2088
2018-04-07T07:58:46.743Z,2092
2018-04-07T07:59:47.424Z,2096
2018-04-07T08:00:48.102Z,2104
2018-04-07T08:01:48.780Z,2100
2018-04-07T08:02:49.462Z,2104
2018-04-07T08:03:50.136Z,2104
2018-04-07T08:04:50.826Z,2116
2018-04-07T08:05:51.500Z,2120
2018-04-07T08:06:52.179Z,2128
2018-04-07T08:07:52.860Z,2128
2018-04-07T08:08:53.543Z,2132
2018-04-07T08:09:54.215Z,2136
2018-04-07T08:10:54.888Z,2140
2018-04-07T08:11:55.571Z,2148
2018-04-07T08:12:56.243Z,2152
2018-04-07T08:13:56.916Z,2156
2018-04-07T08:14:57.593Z,2160
2018-04-07T08:15:58.265Z,2160
2018-04-07T08:16:58.936Z,2168
2018-04-07T08:17:59.619Z,2160
2018-04-07T08:19:00.340Z,2164
2018-04-07T08:20:00.971Z,2168
2018-04-07T08:21:01.645Z,2172
2018-04-07T08:22:02.318Z,2176
2018-04-07T08:23:02.994Z,2184
2018-04-07T08:24:03.668Z,2188
2018-04-07T08:25:04.344Z,2192
2018-04-07T08:26:05.024Z,2196
2018-04-07T08:27:05.698Z,2200
2018-04-07T08:28:06.371Z,2204
2018-04-07T08:29:07.057Z,2208
2018-04-07T08:30:07.728Z,2148
2018-04-07T08:31:08.399Z,2148
2018-04-07T08:32:09.110Z,2156
2018-04-07T08:33:09.781Z,2160
2018-04-07T08:34:10.455Z,2168
2018-04-07T08:35:11.130Z,2176
2018-04-07T08:36:11.803Z,2180
2018-04-07T08:37:14.863Z,2192
2018-04-07T08:38:13.161Z,2192
2018-04-07T08:39:13.840Z,2192
2018-04-07T08:40:14.516Z,2200
2018-04-07T08:41:15.188Z,2204
2018-04-07T08:42:15.869Z,2204
2018-04-07T08:43:16.545Z,2212
2018-04-07T08:44:17.221Z,2220
2018-04-07T08:45:17.897Z,2228
2018-04-07T08:46:18.569Z,2228
2018-04-07T08:47:19.244Z,2236
2018-04-07T08:48:19.928Z,2244
2018-04-07T08:49:20.603Z,2248
2018-04-07T08:50:21.278Z,2252
2018-04-07T08:51:21.953Z,2260
2018-04-07T08:52:22.628Z,2260
2018-04-07T08:53:23.320Z,2268
2018-04-07T08:54:23.979Z,2276
2018-04-07T08:55:24.663Z,2284
2018-04-07T08:56:25.336Z,2292
2018-04-07T08:57:26.012Z,2292
2018-04-07T08:58:26.690Z,2300
2018-04-07T08:59:27.363Z,2304
2018-04-07T09:00:28.052Z,2312
2018-04-07T09:01:28.728Z,2320
2018-04-07T09:02:29.406Z,2324
2018-04-07T09:03:30.079Z,2336
2018-04-07T09:04:30.769Z,2340
2018-04-07T09:05:31.446Z,2344
2018-04-07T09:06:32.115Z,2352
2018-04-07T09:07:32.790Z,2360
2018-04-07T09:08:33.467Z,2372
2018-04-07T09:09:34.149Z,2376
2018-04-07T09:10:34.820Z,2384
2018-04-07T09:11:35.495Z,2388
2018-04-07T09:12:36.185Z,2396
2018-04-07T09:13:36.866Z,2404
2018-04-07T09:14:37.541Z,2412
2018-04-07T09:15:38.228Z,2420
2018-04-07T09:16:38.901Z,2428
2018-04-07T09:17:39.583Z,2432
2018-04-07T09:18:40.258Z,2448
2018-04-07T09:19:40.930Z,2456
2018-04-07T09:20:41.605Z,2464
2018-04-07T09:21:42.281Z,2468
2018-04-07T09:22:42.958Z,2476
2018-04-07T09:23:43.634Z,2484
2018-04-07T09:24:44.314Z,2492
2018-04-07T09:25:45.013Z,2504
2018-04-07T09:26:45.672Z,2516
2018-04-07T09:27:46.345Z,2532
2018-04-07T09:28:47.020Z,2540
2018-04-07T09:29:47.697Z,2544
2018-04-07T09:30:48.380Z,2552
2018-04-07T09:31:49.056Z,2564
2018-04-07T09:32:49.744Z,2576
2018-04-07T09:33:50.417Z,2584
2018-04-07T09:34:51.092Z,2592
2018-04-07T09:35:51.768Z,2604
2018-04-07T09:36:52.444Z,2612
2018-04-07T09:37:53.122Z,2628
2018-04-07T09:38:53.804Z,2632
2018-04-07T09:39:54.480Z,2640
2018-04-07T09:40:55.158Z,2656
2018-04-07T09:41:55.840Z,2668
2018-04-07T09:42:56.516Z,2676
2018-04-07T09:43:57.195Z,2684
2018-04-07T09:44:57.869Z,2700
2018-04-07T09:45:58.552Z,2708
2018-04-07T09:46:59.228Z,2712
2018-04-07T09:47:59.901Z,2724
2018-04-07T09:49:00.576Z,2740
2018-04-07T09:50:01.256Z,2752
2018-04-07T09:51:01.933Z,2764
2018-04-07T09:52:02.610Z,2772
2018-04-07T09:53:03.284Z,2788
2018-04-07T09:54:03.965Z,2800
2018-04-07T09:55:04.637Z,2808
2018-04-07T09:56:05.322Z,2824
2018-04-07T09:57:06.000Z,2832
2018-04-07T09:58:06.674Z,2840
2018-04-07T09:59:07.351Z,2856
2018-04-07T10:00:08.028Z,2864
2018-04-07T10:01:08.701Z,2872
2018-04-07T10:02:09.378Z,2880
2018-04-07T10:03:10.053Z,2892
2018-04-07T10:04:10.735Z,2908
2018-04-07T10:05:11.447Z,2924
2018-04-07T10:06:12.087Z,2932
2018-04-07T10:07:12.761Z,2952
2018-04-07T10:08:13.439Z,2960
2018-04-07T10:09:14.128Z,2972
2018-04-07T10:10:14.807Z,2992
2018-04-07T10:11:15.479Z,3012
2018-04-07T10:12:16.157Z,3024
2018-04-07T10:13:16.831Z,3032
2018-04-07T10:14:17.506Z,3044
2018-04-07T10:15:18.183Z,3060
2018-04-07T10:16:18.857Z,3080
2018-04-07T10:17:19.542Z,3088
2018-04-07T10:18:20.214Z,3104
2018-04-07T10:19:20.896Z,3128
2018-04-07T10:20:21.572Z,3148
2018-04-07T10:21:22.250Z,3156
2018-04-07T10:22:22.927Z,3172
2018-04-07T10:23:23.602Z,3196
2018-04-07T10:24:24.283Z,3212
2018-04-07T10:25:24.971Z,3232
2018-04-07T10:26:25.647Z,3248
2018-04-07T10:27:26.334Z,3272
2018-04-07T10:28:27.016Z,3288
2018-04-07T10:29:27.695Z,3308
2018-04-07T10:30:28.373Z,3332
2018-04-07T10:31:29.051Z,3352
2018-04-07T10:32:29.725Z,3372
2018-04-07T10:33:30.399Z,3400
2018-04-07T10:34:31.090Z,3412
2018-04-07T10:35:31.769Z,3440
2018-04-07T10:36:32.445Z,3468
2018-04-07T10:37:33.161Z,3472
2018-04-07T10:38:33.810Z,3488
2018-04-07T10:39:34.491Z,3508
2018-04-07T10:40:35.166Z,3516
2018-04-07T10:41:35.844Z,3544
2018-04-07T10:42:36.520Z,3564
2018-04-07T10:43:37.196Z,3568
2018-04-07T10:44:37.873Z,3588
2018-04-07T10:45:38.554Z,3616
2018-04-07T10:46:39.231Z,3624
2018-04-07T10:47:39.916Z,3636
2018-04-07T10:48:40.591Z,3656
2018-04-07T10:49:41.286Z,3680
2018-04-07T10:50:41.963Z,3700
2018-04-07T10:51:42.636Z,3728
2018-04-07T10:52:43.348Z,3744
2018-04-07T10:53:44.005Z,3776
2018-04-07T10:54:44.680Z,3788
2018-04-07T10:55:45.354Z,3804
2018-04-07T10:56:46.033Z,3824
2018-04-07T10:57:46.716Z,3848
2018-04-07T10:58:47.395Z,3872
2018-04-07T10:59:48.079Z,3904
2018-04-07T11:00:48.763Z,3940
2018-04-07T11:01:49.444Z,3964
2018-04-07T11:02:50.117Z,3988
2018-04-07T11:03:50.796Z,4008
2018-04-07T11:04:51.478Z,4036
2018-04-07T11:05:52.159Z,4060
2018-04-07T11:06:52.836Z,4092
2018-04-07T11:07:53.514Z,4124
2018-04-07T11:08:54.189Z,4152
2018-04-07T11:09:54.866Z,4192
2018-04-07T11:10:55.551Z,4232
2018-04-07T11:11:56.227Z,4268
2018-04-07T11:12:56.905Z,4324
2018-04-07T11:13:57.584Z,4356
2018-04-07T11:14:58.259Z,4384
2018-04-07T11:15:58.934Z,4400
2018-04-07T11:16:59.619Z,4444
2018-04-07T11:18:00.298Z,4480
2018-04-07T11:19:00.979Z,4496
2018-04-07T11:20:01.657Z,4532
2018-04-07T11:21:02.333Z,4588
2018-04-07T11:22:03.015Z,4636
2018-04-07T11:23:03.694Z,4684
2018-04-07T11:24:04.381Z,4740
2018-04-07T11:25:05.059Z,4796
2018-04-07T11:26:05.738Z,4884
2018-04-07T11:27:06.421Z,4948
2018-04-07T11:28:07.102Z,4992
2018-04-07T11:29:07.787Z,5052
2018-04-07T11:30:08.470Z,5096
2018-04-07T11:31:09.150Z,5144
2018-04-07T11:32:09.835Z,5208
2018-04-07T11:33:10.513Z,5316
2018-04-07T11:34:11.194Z,34848
2018-04-07T11:35:11.877Z,54176
2018-04-07T11:36:12.563Z,56992
2018-04-07T11:37:13.241Z,71104
2018-04-07T11:38:13.926Z,90976
2018-04-07T11:39:14.614Z,103520
2018-04-07T11:40:15.298Z,86496
2018-04-07T11:41:15.979Z,73696
2018-04-07T11:42:16.686Z,76864
2018-04-07T11:43:17.367Z,83744
2018-04-07T11:44:18.054Z,89632
2018-04-07T11:45:18.734Z,70720
2018-04-07T11:46:19.419Z,91232
2018-04-07T11:47:20.106Z,67168
2018-04-07T11:48:20.788Z,96384
2018-04-07T11:49:21.481Z,98464
2018-04-07T11:50:22.160Z,96896
2018-04-07T11:51:22.854Z,85344
2018-04-07T11:52:23.540Z,82304
2018-04-07T11:53:24.225Z,88000
2018-04-07T11:54:24.914Z,83648
2018-04-07T11:55:25.600Z,82176
2018-04-07T11:56:26.290Z,71584
2018-04-07T11:57:26.974Z,70176
2018-04-07T11:58:27.660Z,70016
2018-04-07T11:59:28.345Z,71648
2018-04-07T12:00:29.040Z,77568
2018-04-07T12:01:29.734Z,87360
2018-04-07T12:02:30.481Z,91040
2018-04-07T12:03:31.106Z,97088
2018-04-07T12:04:31.800Z,94336
2018-04-07T12:05:32.495Z,89408
2018-04-07T12:06:33.185Z,87200
2018-04-07T12:07:33.895Z,87488
2018-04-07T12:08:34.592Z,87936
2018-04-07T12:09:35.282Z,86432
2018-04-07T12:10:35.968Z,82112
2018-04-07T12:11:36.697Z,75584
2018-04-07T12:12:37.348Z,81248
2018-04-07T12:13:38.038Z,69216
2018-04-07T12:14:38.729Z,71200
2018-04-07T12:15:39.418Z,78528
2018-04-07T12:16:40.108Z,81504
2018-04-07T12:17:40.798Z,90816
2018-04-07T12:18:41.494Z,93408
2018-04-07T12:19:42.180Z,94912
2018-04-07T12:20:42.867Z,99584
2018-04-07T12:21:43.558Z,99264
2018-04-07T12:22:44.247Z,94464
2018-04-07T12:23:44.956Z,92608
2018-04-07T12:24:45.651Z,92032
2018-04-07T12:25:46.342Z,93472
2018-04-07T12:26:47.039Z,90496
2018-04-07T12:27:47.730Z,88192
2018-04-07T12:28:48.425Z,80000
2018-04-07T12:29:49.115Z,84352
2018-04-07T12:30:49.807Z,82144
2018-04-07T12:31:50.494Z,95616
2018-04-07T12:32:51.189Z,110240
2018-04-07T12:33:51.883Z,108736
2018-04-07T12:34:52.577Z,120448
2018-04-07T12:35:53.267Z,112672
2018-04-07T12:36:53.968Z,131392
2018-04-07T12:37:54.660Z,103648
2018-04-07T12:38:55.359Z,123008
2018-04-07T12:39:56.086Z,101120
2018-04-07T12:40:56.778Z,98688
2018-04-07T12:41:57.475Z,93280
2018-04-07T12:42:58.169Z,99136
2018-04-07T12:43:58.859Z,84544
2018-04-07T12:44:59.550Z,93728
2018-04-07T12:46:00.247Z,101664
2018-04-07T12:47:00.944Z,96768
2018-04-07T12:48:01.638Z,95200
2018-04-07T12:49:02.337Z,95744
2018-04-07T12:50:03.027Z,85984
2018-04-07T12:51:03.741Z,86784
2018-04-07T12:52:04.432Z,97568
2018-04-07T12:53:05.128Z,78752
2018-04-07T12:54:05.832Z,90624
2018-04-07T12:55:06.524Z,76288
2018-04-07T12:56:07.223Z,90784
2018-04-07T12:57:07.926Z,89440
2018-04-07T12:58:08.625Z,84320
2018-04-07T12:59:09.326Z,85696
2018-04-07T13:00:10.021Z,86880
2018-04-07T13:01:10.757Z,94048
2018-04-07T13:02:11.414Z,81024
2018-04-07T13:03:12.108Z,82720
2018-04-07T13:04:12.800Z,85760
2018-04-07T13:05:13.498Z,86528
2018-04-07T13:06:14.196Z,88608
2018-04-07T13:07:14.889Z,91232
2018-04-07T13:08:15.594Z,90432
2018-04-07T13:09:16.290Z,90560
2018-04-07T13:10:16.986Z,81664
2018-04-07T13:11:17.693Z,73088
2018-04-07T13:12:18.392Z,70432
2018-04-07T13:13:19.094Z,74400
2018-04-07T13:14:19.788Z,83552
2018-04-07T13:15:20.482Z,91392
2018-04-07T13:16:21.177Z,90528
2018-04-07T13:17:21.872Z,85792
2018-04-07T13:18:22.564Z,70400
2018-04-07T13:19:23.259Z,43968
2018-04-07T13:20:23.947Z,28928
2018-04-07T13:21:24.649Z,27360
2018-04-07T13:22:25.344Z,30176
2018-04-07T13:23:26.043Z,29888
2018-04-07T13:24:26.739Z,28160
2018-04-07T13:25:27.431Z,26816
2018-04-07T13:26:28.128Z,28064
2018-04-07T13:27:28.827Z,29984
2018-04-07T13:28:29.529Z,33632
2018-04-07T13:29:30.236Z,32832
2018-04-07T13:30:30.932Z,31168
2018-04-07T13:31:31.623Z,32736
2018-04-07T13:32:32.321Z,60640
2018-04-07T13:33:38.526Z,79712
2018-04-07T13:34:33.725Z,66752
2018-04-07T13:35:34.414Z,64000
2018-04-07T13:36:35.119Z,57728
2018-04-07T13:37:35.812Z,51488
2018-04-07T13:38:36.512Z,52672
2018-04-07T13:39:37.216Z,54528
2018-04-07T13:40:37.914Z,57728
2018-04-07T13:41:38.607Z,72320
2018-04-07T13:42:39.302Z,71168
2018-04-07T13:43:39.997Z,73664
2018-04-07T13:44:40.701Z,56672
2018-04-07T13:45:41.396Z,57504
2018-04-07T13:46:42.103Z,46144
2018-04-07T13:47:42.797Z,53440
2018-04-07T13:48:43.493Z,57376
2018-04-07T13:49:44.195Z,65184
2018-04-07T13:50:44.888Z,71296
2018-04-07T13:51:45.589Z,64576